sensor_id;sensor_type;location;lat;lon;timestamp;temperature;humidity
12329;DHT22;6230;52.390;10.256;2023-02-28T00:00:13;6.10;58.70
12329;DHT22;6230;52.390;10.256;2023-02-28T00:02:40;6.10;58.80
12329;DHT22;6230;52.390;10.256;2023-02-28T00:05:07;6.10;58.80
12329;DHT22;6230;52.390;10.256;2023-02-28T00:07:33;6.00;58.80
12329;DHT22;6230;52.390;10.256;2023-02-28T00:09:59;6.00;58.80
12329;DHT22;6230;52.390;10.256;2023-02-28T00:12:25;6.00;58.80
12329;DHT22;6230;52.390;10.256;2023-02-28T00:14:51;6.00;58.80
12329;DHT22;6230;52.390;10.256;2023-02-28T00:17:17;6.00;58.80
12329;DHT22;6230;52.390;10.256;2023-02-28T00:19:47;5.90;58.80
12329;DHT22;6230;52.390;10.256;2023-02-28T00:22:13;5.90;58.80
12329;DHT22;6230;52.390;10.256;2023-02-28T00:24:39;5.90;58.80
12329;DHT22;6230;52.390;10.256;2023-02-28T00:27:04;5.90;59.20
12329;DHT22;6230;52.390;10.256;2023-02-28T00:29:30;5.80;58.90
12329;DHT22;6230;52.390;10.256;2023-02-28T00:31:56;5.80;58.90
12329;DHT22;6230;52.390;10.256;2023-02-28T00:34:21;5.80;59.00
12329;DHT22;6230;52.390;10.256;2023-02-28T00:36:47;5.80;59.00
12329;DHT22;6230;52.390;10.256;2023-02-28T00:39:15;5.70;58.90
12329;DHT22;6230;52.390;10.256;2023-02-28T00:41:41;5.70;58.90
12329;DHT22;6230;52.390;10.256;2023-02-28T00:44:06;5.70;59.10
12329;DHT22;6230;52.390;10.256;2023-02-28T00:46:32;5.60;59.00
12329;DHT22;6230;52.390;10.256;2023-02-28T00:48:58;5.60;59.10
12329;DHT22;6230;52.390;10.256;2023-02-28T00:51:23;5.50;59.20
12329;DHT22;6230;52.390;10.256;2023-02-28T00:53:49;5.40;59.20
12329;DHT22;6230;52.390;10.256;2023-02-28T00:56:14;5.40;59.30
12329;DHT22;6230;52.390;10.256;2023-02-28T00:58:40;5.30;59.40
12329;DHT22;6230;52.390;10.256;2023-02-28T01:01:06;5.30;59.40
12329;DHT22;6230;52.390;10.256;2023-02-28T01:03:31;5.30;59.40
12329;DHT22;6230;52.390;10.256;2023-02-28T01:05:57;5.30;59.40
12329;DHT22;6230;52.390;10.256;2023-02-28T01:08:23;5.30;59.30
12329;DHT22;6230;52.390;10.256;2023-02-28T01:10:49;5.30;59.90
12329;DHT22;6230;52.390;10.256;2023-02-28T01:13:15;5.20;59.20
12329;DHT22;6230;52.390;10.256;2023-02-28T01:15:45;5.20;59.30
12329;DHT22;6230;52.390;10.256;2023-02-28T01:18:11;5.20;59.30
12329;DHT22;6230;52.390;10.256;2023-02-28T01:20:38;5.20;59.30
12329;DHT22;6230;52.390;10.256;2023-02-28T01:23:04;5.10;59.20
12329;DHT22;6230;52.390;10.256;2023-02-28T01:25:30;5.10;59.20
12329;DHT22;6230;52.390;10.256;2023-02-28T01:27:56;5.10;59.30
12329;DHT22;6230;52.390;10.256;2023-02-28T01:30:21;5.10;59.30
12329;DHT22;6230;52.390;10.256;2023-02-28T01:32:47;5.10;59.30
12329;DHT22;6230;52.390;10.256;2023-02-28T01:35:13;5.10;59.30
12329;DHT22;6230;52.390;10.256;2023-02-28T01:37:38;5.10;59.30
12329;DHT22;6230;52.390;10.256;2023-02-28T01:40:04;5.10;59.30
12329;DHT22;6230;52.390;10.256;2023-02-28T01:42:30;5.00;59.30
12329;DHT22;6230;52.390;10.256;2023-02-28T01:47:40;5.00;59.30
12329;DHT22;6230;52.390;10.256;2023-02-28T01:50:11;5.10;59.40
12329;DHT22;6230;52.390;10.256;2023-02-28T01:52:38;5.00;59.40
12329;DHT22;6230;52.390;10.256;2023-02-28T01:55:06;5.00;59.40
12329;DHT22;6230;52.390;10.256;2023-02-28T01:57:35;4.90;59.50
12329;DHT22;6230;52.390;10.256;2023-02-28T02:00:11;4.90;59.60
12329;DHT22;6230;52.390;10.256;2023-02-28T02:02:47;4.80;59.60
12329;DHT22;6230;52.390;10.256;2023-02-28T02:05:18;4.80;60.40
12329;DHT22;6230;52.390;10.256;2023-02-28T02:07:46;4.80;59.70
12329;DHT22;6230;52.390;10.256;2023-02-28T02:10:19;4.80;59.80
12329;DHT22;6230;52.390;10.256;2023-02-28T02:13:05;4.80;59.80
12329;DHT22;6230;52.390;10.256;2023-02-28T02:15:44;4.80;59.90
12329;DHT22;6230;52.390;10.256;2023-02-28T02:19:00;4.70;59.80
12329;DHT22;6230;52.390;10.256;2023-02-28T02:21:17;4.70;60.00
12329;DHT22;6230;52.390;10.256;2023-02-28T02:29:33;4.60;60.00
12329;DHT22;6230;52.390;10.256;2023-02-28T02:35:16;4.50;60.00
12329;DHT22;6230;52.390;10.256;2023-02-28T02:37:47;4.50;60.20
12329;DHT22;6230;52.390;10.256;2023-02-28T02:43:03;4.40;60.20
12329;DHT22;6230;52.390;10.256;2023-02-28T02:45:58;4.30;60.40
12329;DHT22;6230;52.390;10.256;2023-02-28T02:48:29;4.30;60.50
12329;DHT22;6230;52.390;10.256;2023-02-28T02:50:59;4.30;60.40
12329;DHT22;6230;52.390;10.256;2023-02-28T02:53:35;4.30;60.50
12329;DHT22;6230;52.390;10.256;2023-02-28T02:56:03;4.30;60.50
12329;DHT22;6230;52.390;10.256;2023-02-28T02:58:40;4.30;60.50
12329;DHT22;6230;52.390;10.256;2023-02-28T03:01:09;4.30;60.50
12329;DHT22;6230;52.390;10.256;2023-02-28T03:03:35;4.40;60.40
12329;DHT22;6230;52.390;10.256;2023-02-28T03:06:02;4.40;60.40
12329;DHT22;6230;52.390;10.256;2023-02-28T03:08:31;4.40;60.30
12329;DHT22;6230;52.390;10.256;2023-02-28T03:11:05;4.40;60.40
12329;DHT22;6230;52.390;10.256;2023-02-28T03:13:54;4.40;60.40
12329;DHT22;6230;52.390;10.256;2023-02-28T03:28:22;4.30;60.70
12329;DHT22;6230;52.390;10.256;2023-02-28T03:33:30;4.30;60.70
12329;DHT22;6230;52.390;10.256;2023-02-28T03:36:04;4.30;60.60
12329;DHT22;6230;52.390;10.256;2023-02-28T03:41:36;4.20;60.90
12329;DHT22;6230;52.390;10.256;2023-02-28T03:44:10;4.20;61.00
12329;DHT22;6230;52.390;10.256;2023-02-28T03:46:45;4.20;61.00
12329;DHT22;6230;52.390;10.256;2023-02-28T03:49:18;4.20;61.00
12329;DHT22;6230;52.390;10.256;2023-02-28T03:51:46;4.20;61.10
12329;DHT22;6230;52.390;10.256;2023-02-28T03:54:16;4.20;61.10
12329;DHT22;6230;52.390;10.256;2023-02-28T03:56:54;4.20;61.20
12329;DHT22;6230;52.390;10.256;2023-02-28T03:59:23;4.20;61.30
12329;DHT22;6230;52.390;10.256;2023-02-28T04:01:52;4.20;61.30
12329;DHT22;6230;52.390;10.256;2023-02-28T04:04:18;4.20;61.30
12329;DHT22;6230;52.390;10.256;2023-02-28T04:06:44;4.20;61.20
12329;DHT22;6230;52.390;10.256;2023-02-28T04:09:13;4.20;61.30
12329;DHT22;6230;52.390;10.256;2023-02-28T04:11:50;4.20;61.30
12329;DHT22;6230;52.390;10.256;2023-02-28T04:14:21;4.20;61.50
12329;DHT22;6230;52.390;10.256;2023-02-28T04:16:47;4.20;61.40
12329;DHT22;6230;52.390;10.256;2023-02-28T04:19:13;4.20;61.50
12329;DHT22;6230;52.390;10.256;2023-02-28T04:21:40;4.20;61.40
12329;DHT22;6230;52.390;10.256;2023-02-28T04:24:08;4.20;61.40
12329;DHT22;6230;52.390;10.256;2023-02-28T04:26:36;4.20;61.40
12329;DHT22;6230;52.390;10.256;2023-02-28T04:29:03;4.20;61.40
12329;DHT22;6230;52.390;10.256;2023-02-28T04:31:29;4.20;61.40
12329;DHT22;6230;52.390;10.256;2023-02-28T04:33:55;4.10;61.30
12329;DHT22;6230;52.390;10.256;2023-02-28T04:36:20;4.10;61.50
12329;DHT22;6230;52.390;10.256;2023-02-28T04:38:48;4.10;61.50
12329;DHT22;6230;52.390;10.256;2023-02-28T04:41:14;4.10;61.50
12329;DHT22;6230;52.390;10.256;2023-02-28T04:43:39;4.00;61.50
12329;DHT22;6230;52.390;10.256;2023-02-28T04:46:05;3.90;61.60
12329;DHT22;6230;52.390;10.256;2023-02-28T04:48:34;3.80;61.90
12329;DHT22;6230;52.390;10.256;2023-02-28T04:51:07;3.70;62.10
12329;DHT22;6230;52.390;10.256;2023-02-28T04:53:33;3.70;62.10
12329;DHT22;6230;52.390;10.256;2023-02-28T04:56:00;3.70;62.10
12329;DHT22;6230;52.390;10.256;2023-02-28T04:58:26;3.60;62.10
12329;DHT22;6230;52.390;10.256;2023-02-28T05:00:52;3.50;62.20
12329;DHT22;6230;52.390;10.256;2023-02-28T05:03:18;3.50;62.40
12329;DHT22;6230;52.390;10.256;2023-02-28T05:05:44;3.50;62.40
12329;DHT22;6230;52.390;10.256;2023-02-28T05:08:10;3.60;62.40
12329;DHT22;6230;52.390;10.256;2023-02-28T05:10:37;3.60;62.30
12329;DHT22;6230;52.390;10.256;2023-02-28T05:13:02;3.60;62.20
12329;DHT22;6230;52.390;10.256;2023-02-28T05:15:28;3.60;62.10
12329;DHT22;6230;52.390;10.256;2023-02-28T05:17:54;3.70;62.10
12329;DHT22;6230;52.390;10.256;2023-02-28T05:20:19;3.70;61.90
12329;DHT22;6230;52.390;10.256;2023-02-28T05:22:46;3.70;61.80
12329;DHT22;6230;52.390;10.256;2023-02-28T05:25:15;3.70;61.80
12329;DHT22;6230;52.390;10.256;2023-02-28T05:27:41;3.70;61.70
12329;DHT22;6230;52.390;10.256;2023-02-28T05:30:07;3.70;61.70
12329;DHT22;6230;52.390;10.256;2023-02-28T05:32:36;3.70;61.70
12329;DHT22;6230;52.390;10.256;2023-02-28T05:35:02;3.70;61.70
12329;DHT22;6230;52.390;10.256;2023-02-28T05:37:28;3.70;61.70
12329;DHT22;6230;52.390;10.256;2023-02-28T05:39:53;3.60;61.70
12329;DHT22;6230;52.390;10.256;2023-02-28T05:42:19;3.60;61.70
12329;DHT22;6230;52.390;10.256;2023-02-28T05:44:44;3.60;61.70
12329;DHT22;6230;52.390;10.256;2023-02-28T05:47:10;3.60;61.60
12329;DHT22;6230;52.390;10.256;2023-02-28T05:49:35;3.50;61.60
12329;DHT22;6230;52.390;10.256;2023-02-28T05:52:01;3.50;61.70
12329;DHT22;6230;52.390;10.256;2023-02-28T05:54:26;3.40;61.80
12329;DHT22;6230;52.390;10.256;2023-02-28T05:56:52;3.30;62.10
12329;DHT22;6230;52.390;10.256;2023-02-28T05:59:17;3.30;62.20
12329;DHT22;6230;52.390;10.256;2023-02-28T06:01:45;3.20;62.20
12329;DHT22;6230;52.390;10.256;2023-02-28T06:04:14;3.20;62.40
12329;DHT22;6230;52.390;10.256;2023-02-28T06:06:44;3.10;62.50
12329;DHT22;6230;52.390;10.256;2023-02-28T06:09:10;3.10;62.70
12329;DHT22;6230;52.390;10.256;2023-02-28T06:11:36;3.10;62.80
12329;DHT22;6230;52.390;10.256;2023-02-28T06:14:02;3.10;62.90
12329;DHT22;6230;52.390;10.256;2023-02-28T06:16:29;3.10;62.80
12329;DHT22;6230;52.390;10.256;2023-02-28T06:18:57;3.10;62.70
12329;DHT22;6230;52.390;10.256;2023-02-28T06:21:23;3.20;62.60
12329;DHT22;6230;52.390;10.256;2023-02-28T06:23:49;3.20;62.50
12329;DHT22;6230;52.390;10.256;2023-02-28T06:26:15;3.20;62.40
12329;DHT22;6230;52.390;10.256;2023-02-28T06:28:41;3.20;62.30
12329;DHT22;6230;52.390;10.256;2023-02-28T06:31:11;3.20;62.40
12329;DHT22;6230;52.390;10.256;2023-02-28T06:33:38;3.20;62.40
12329;DHT22;6230;52.390;10.256;2023-02-28T06:36:05;3.30;62.30
12329;DHT22;6230;52.390;10.256;2023-02-28T06:38:31;3.30;62.30
12329;DHT22;6230;52.390;10.256;2023-02-28T06:40:58;3.30;62.30
12329;DHT22;6230;52.390;10.256;2023-02-28T06:43:25;3.30;62.20
12329;DHT22;6230;52.390;10.256;2023-02-28T06:45:54;3.30;62.20
12329;DHT22;6230;52.390;10.256;2023-02-28T06:48:20;3.30;62.20
12329;DHT22;6230;52.390;10.256;2023-02-28T06:50:46;3.40;62.30
12329;DHT22;6230;52.390;10.256;2023-02-28T06:53:12;3.40;62.30
12329;DHT22;6230;52.390;10.256;2023-02-28T06:55:39;3.40;62.30
12329;DHT22;6230;52.390;10.256;2023-02-28T06:58:04;3.40;62.30
12329;DHT22;6230;52.390;10.256;2023-02-28T07:00:41;3.40;62.40
12329;DHT22;6230;52.390;10.256;2023-02-28T07:03:07;3.40;62.40
12329;DHT22;6230;52.390;10.256;2023-02-28T07:05:35;3.40;62.40
12329;DHT22;6230;52.390;10.256;2023-02-28T07:08:01;3.40;62.50
12329;DHT22;6230;52.390;10.256;2023-02-28T07:10:27;3.50;62.60
12329;DHT22;6230;52.390;10.256;2023-02-28T07:12:52;3.50;62.60
12329;DHT22;6230;52.390;10.256;2023-02-28T07:15:18;3.50;62.60
12329;DHT22;6230;52.390;10.256;2023-02-28T07:17:43;3.60;62.60
12329;DHT22;6230;52.390;10.256;2023-02-28T07:20:09;3.60;62.70
12329;DHT22;6230;52.390;10.256;2023-02-28T07:22:35;3.60;62.70
12329;DHT22;6230;52.390;10.256;2023-02-28T07:25:01;3.60;62.70
12329;DHT22;6230;52.390;10.256;2023-02-28T07:27:26;3.60;62.80
12329;DHT22;6230;52.390;10.256;2023-02-28T07:29:53;3.60;62.90
12329;DHT22;6230;52.390;10.256;2023-02-28T07:32:19;3.60;63.00
12329;DHT22;6230;52.390;10.256;2023-02-28T07:34:45;3.60;63.00
12329;DHT22;6230;52.390;10.256;2023-02-28T07:37:10;3.60;63.10
12329;DHT22;6230;52.390;10.256;2023-02-28T07:39:36;3.70;63.20
12329;DHT22;6230;52.390;10.256;2023-02-28T07:42:05;3.70;63.20
12329;DHT22;6230;52.390;10.256;2023-02-28T07:44:31;3.80;63.30
12329;DHT22;6230;52.390;10.256;2023-02-28T07:46:57;3.80;63.30
12329;DHT22;6230;52.390;10.256;2023-02-28T07:49:23;3.80;64.10
12329;DHT22;6230;52.390;10.256;2023-02-28T07:51:48;3.80;63.30
12329;DHT22;6230;52.390;10.256;2023-02-28T07:54:14;3.80;63.40
12329;DHT22;6230;52.390;10.256;2023-02-28T07:56:39;3.90;63.40
12329;DHT22;6230;52.390;10.256;2023-02-28T07:59:05;3.90;63.30
12329;DHT22;6230;52.390;10.256;2023-02-28T08:01:31;4.00;63.30
12329;DHT22;6230;52.390;10.256;2023-02-28T08:03:56;4.00;63.30
12329;DHT22;6230;52.390;10.256;2023-02-28T08:06:24;4.00;63.20
12329;DHT22;6230;52.390;10.256;2023-02-28T08:08:50;4.00;63.30
12329;DHT22;6230;52.390;10.256;2023-02-28T08:11:17;4.00;63.40
12329;DHT22;6230;52.390;10.256;2023-02-28T08:13:43;4.10;63.50
12329;DHT22;6230;52.390;10.256;2023-02-28T08:16:10;4.10;63.50
12329;DHT22;6230;52.390;10.256;2023-02-28T08:18:36;4.20;63.60
12329;DHT22;6230;52.390;10.256;2023-02-28T08:21:09;4.20;63.60
12329;DHT22;6230;52.390;10.256;2023-02-28T08:23:35;4.20;63.70
12329;DHT22;6230;52.390;10.256;2023-02-28T08:26:01;4.30;63.70
12329;DHT22;6230;52.390;10.256;2023-02-28T08:28:27;4.30;63.70
12329;DHT22;6230;52.390;10.256;2023-02-28T08:30:53;4.40;63.70
12329;DHT22;6230;52.390;10.256;2023-02-28T08:33:19;4.40;63.70
12329;DHT22;6230;52.390;10.256;2023-02-28T08:35:44;4.50;63.80
12329;DHT22;6230;52.390;10.256;2023-02-28T08:38:10;4.50;63.80
12329;DHT22;6230;52.390;10.256;2023-02-28T08:40:35;4.60;63.70
12329;DHT22;6230;52.390;10.256;2023-02-28T08:43:01;4.60;64.50
12329;DHT22;6230;52.390;10.256;2023-02-28T08:45:26;4.70;63.80
12329;DHT22;6230;52.390;10.256;2023-02-28T08:47:54;4.80;63.70
12329;DHT22;6230;52.390;10.256;2023-02-28T08:50:20;4.80;63.70
12329;DHT22;6230;52.390;10.256;2023-02-28T08:52:46;4.90;63.70
12329;DHT22;6230;52.390;10.256;2023-02-28T08:55:11;4.90;63.70
12329;DHT22;6230;52.390;10.256;2023-02-28T08:57:37;4.90;63.70
12329;DHT22;6230;52.390;10.256;2023-02-28T09:00:03;5.00;63.80
12329;DHT22;6230;52.390;10.256;2023-02-28T09:02:30;5.00;63.90
12329;DHT22;6230;52.390;10.256;2023-02-28T09:04:56;5.10;63.80
12329;DHT22;6230;52.390;10.256;2023-02-28T09:07:22;5.20;63.70
12329;DHT22;6230;52.390;10.256;2023-02-28T09:09:47;5.30;63.60
12329;DHT22;6230;52.390;10.256;2023-02-28T09:12:24;5.40;63.60
12329;DHT22;6230;52.390;10.256;2023-02-28T09:14:51;5.50;63.50
12329;DHT22;6230;52.390;10.256;2023-02-28T09:17:17;5.50;63.40
12329;DHT22;6230;52.390;10.256;2023-02-28T09:19:43;5.60;63.30
12329;DHT22;6230;52.390;10.256;2023-02-28T09:22:10;5.70;63.30
12329;DHT22;6230;52.390;10.256;2023-02-28T09:24:37;5.70;63.10
12329;DHT22;6230;52.390;10.256;2023-02-28T09:27:02;5.80;63.00
12329;DHT22;6230;52.390;10.256;2023-02-28T09:29:28;5.80;62.90
12329;DHT22;6230;52.390;10.256;2023-02-28T09:31:53;5.90;63.00
12329;DHT22;6230;52.390;10.256;2023-02-28T09:34:19;5.90;62.90
12329;DHT22;6230;52.390;10.256;2023-02-28T09:36:45;6.00;62.90
12329;DHT22;6230;52.390;10.256;2023-02-28T09:39:11;6.10;62.70
12329;DHT22;6230;52.390;10.256;2023-02-28T09:41:43;6.20;62.70
12329;DHT22;6230;52.390;10.256;2023-02-28T09:44:30;6.30;62.60
12329;DHT22;6230;52.390;10.256;2023-02-28T09:47:08;6.40;62.50
12329;DHT22;6230;52.390;10.256;2023-02-28T09:49:39;6.50;62.30
12329;DHT22;6230;52.390;10.256;2023-02-28T09:52:12;6.50;62.30
12329;DHT22;6230;52.390;10.256;2023-02-28T09:54:39;6.60;62.20
12329;DHT22;6230;52.390;10.256;2023-02-28T09:57:19;6.70;62.50
12329;DHT22;6230;52.390;10.256;2023-02-28T10:00:00;6.90;62.70
12329;DHT22;6230;52.390;10.256;2023-02-28T10:03:04;7.20;62.50
12329;DHT22;6230;52.390;10.256;2023-02-28T10:08:03;7.70;62.20
12329;DHT22;6230;52.390;10.256;2023-02-28T10:10:42;8.00;62.00
12329;DHT22;6230;52.390;10.256;2023-02-28T10:13:24;8.30;61.60
12329;DHT22;6230;52.390;10.256;2023-02-28T10:16:01;8.60;61.20
12329;DHT22;6230;52.390;10.256;2023-02-28T10:18:34;8.80;60.80
12329;DHT22;6230;52.390;10.256;2023-02-28T10:21:03;9.00;61.50
12329;DHT22;6230;52.390;10.256;2023-02-28T10:23:32;9.30;60.50
12329;DHT22;6230;52.390;10.256;2023-02-28T10:26:20;9.50;60.00
12329;DHT22;6230;52.390;10.256;2023-02-28T10:28:46;9.70;59.50
12329;DHT22;6230;52.390;10.256;2023-02-28T10:31:15;10.00;60.20
12329;DHT22;6230;52.390;10.256;2023-02-28T10:33:42;10.10;58.40
12329;DHT22;6230;52.390;10.256;2023-02-28T10:36:12;10.10;56.80
12329;DHT22;6230;52.390;10.256;2023-02-28T10:38:39;10.10;57.60
12329;DHT22;6230;52.390;10.256;2023-02-28T10:41:13;10.20;57.10
12329;DHT22;6230;52.390;10.256;2023-02-28T10:43:41;10.30;56.80
12329;DHT22;6230;52.390;10.256;2023-02-28T10:48:50;10.40;56.20
12329;DHT22;6230;52.390;10.256;2023-02-28T10:51:22;10.40;54.50
12329;DHT22;6230;52.390;10.256;2023-02-28T10:53:49;10.10;53.80
12329;DHT22;6230;52.390;10.256;2023-02-28T10:56:18;9.90;54.60
12329;DHT22;6230;52.390;10.256;2023-02-28T11:01:42;9.60;54.50
12329;DHT22;6230;52.390;10.256;2023-02-28T11:07:19;9.20;54.80
12329;DHT22;6230;52.390;10.256;2023-02-28T11:09:54;9.10;55.30
12329;DHT22;6230;52.390;10.256;2023-02-28T11:14:52;9.10;54.60
12329;DHT22;6230;52.390;10.256;2023-02-28T11:17:26;9.30;54.60
12329;DHT22;6230;52.390;10.256;2023-02-28T11:20:05;9.50;54.60
12329;DHT22;6230;52.390;10.256;2023-02-28T11:22:38;9.80;54.60
12329;DHT22;6230;52.390;10.256;2023-02-28T11:25:16;10.20;54.20
12329;DHT22;6230;52.390;10.256;2023-02-28T11:28:00;10.40;53.40
12329;DHT22;6230;52.390;10.256;2023-02-28T11:30:39;10.60;53.00
12329;DHT22;6230;52.390;10.256;2023-02-28T11:35:48;10.50;52.30
12329;DHT22;6230;52.390;10.256;2023-02-28T11:38:14;10.50;52.70
12329;DHT22;6230;52.390;10.256;2023-02-28T11:40:46;10.50;52.60
12329;DHT22;6230;52.390;10.256;2023-02-28T11:43:34;10.40;52.50
12329;DHT22;6230;52.390;10.256;2023-02-28T11:46:22;10.40;51.80
12329;DHT22;6230;52.390;10.256;2023-02-28T11:51:28;10.50;52.30
12329;DHT22;6230;52.390;10.256;2023-02-28T11:54:21;10.70;52.10
12329;DHT22;6230;52.390;10.256;2023-02-28T11:56:55;10.90;51.90
12329;DHT22;6230;52.390;10.256;2023-02-28T12:02:26;11.30;50.80
12329;DHT22;6230;52.390;10.256;2023-02-28T12:05:19;11.30;49.70
12329;DHT22;6230;52.390;10.256;2023-02-28T12:08:22;11.20;50.00
12329;DHT22;6230;52.390;10.256;2023-02-28T12:11:01;11.30;49.90
12329;DHT22;6230;52.390;10.256;2023-02-28T12:16:40;11.70;46.90
12329;DHT22;6230;52.390;10.256;2023-02-28T12:19:26;11.80;46.50
12329;DHT22;6230;52.390;10.256;2023-02-28T12:26:54;12.10;46.70
12329;DHT22;6230;52.390;10.256;2023-02-28T12:29:28;12.40;47.40
12329;DHT22;6230;52.390;10.256;2023-02-28T12:34:58;13.10;46.80
12329;DHT22;6230;52.390;10.256;2023-02-28T12:37:40;13.30;46.90
12329;DHT22;6230;52.390;10.256;2023-02-28T12:40:14;13.50;47.10
12329;DHT22;6230;52.390;10.256;2023-02-28T12:42:54;13.90;46.70
12329;DHT22;6230;52.390;10.256;2023-02-28T12:48:44;14.40;45.50
12329;DHT22;6230;52.390;10.256;2023-02-28T12:51:12;14.60;45.70
12329;DHT22;6230;52.390;10.256;2023-02-28T12:56:17;14.80;45.90
12329;DHT22;6230;52.390;10.256;2023-02-28T12:58:51;15.00;45.30
12329;DHT22;6230;52.390;10.256;2023-02-28T13:07:17;15.30;44.60
12329;DHT22;6230;52.390;10.256;2023-02-28T13:09:53;15.40;44.80
12329;DHT22;6230;52.390;10.256;2023-02-28T13:12:19;15.50;44.10
12329;DHT22;6230;52.390;10.256;2023-02-28T13:14:46;15.60;44.30
12329;DHT22;6230;52.390;10.256;2023-02-28T13:17:14;15.60;44.00
12329;DHT22;6230;52.390;10.256;2023-02-28T13:22:44;15.80;43.70
12329;DHT22;6230;52.390;10.256;2023-02-28T13:27:55;16.20;43.10
12329;DHT22;6230;52.390;10.256;2023-02-28T13:33:30;16.30;41.80
12329;DHT22;6230;52.390;10.256;2023-02-28T13:38:56;16.60;42.00
12329;DHT22;6230;52.390;10.256;2023-02-28T13:52:22;16.70;40.30
12329;DHT22;6230;52.390;10.256;2023-02-28T13:55:18;16.70;40.20
12329;DHT22;6230;52.390;10.256;2023-02-28T14:05:27;16.80;39.80
12329;DHT22;6230;52.390;10.256;2023-02-28T14:07:57;16.80;39.90
12329;DHT22;6230;52.390;10.256;2023-02-28T14:11:03;16.80;39.60
12329;DHT22;6230;52.390;10.256;2023-02-28T14:16:24;16.30;37.50
12329;DHT22;6230;52.390;10.256;2023-02-28T14:19:24;16.20;38.60
12329;DHT22;6230;52.390;10.256;2023-02-28T14:22:13;16.30;38.80
12329;DHT22;6230;52.390;10.256;2023-02-28T14:30:19;15.90;38.40
12329;DHT22;6230;52.390;10.256;2023-02-28T14:33:01;15.80;39.00
12329;DHT22;6230;52.390;10.256;2023-02-28T14:38:29;15.00;39.40
12329;DHT22;6230;52.390;10.256;2023-02-28T14:40:58;14.70;39.90
12329;DHT22;6230;52.390;10.256;2023-02-28T14:43:28;14.50;38.70
12329;DHT22;6230;52.390;10.256;2023-02-28T14:45:59;14.10;38.90
12329;DHT22;6230;52.390;10.256;2023-02-28T14:48:26;13.70;38.80
12329;DHT22;6230;52.390;10.256;2023-02-28T14:50:57;13.30;38.10
12329;DHT22;6230;52.390;10.256;2023-02-28T14:53:29;13.00;38.60
12329;DHT22;6230;52.390;10.256;2023-02-28T14:55:55;12.70;38.80
12329;DHT22;6230;52.390;10.256;2023-02-28T14:58:30;12.50;39.70
12329;DHT22;6230;52.390;10.256;2023-02-28T15:00:58;12.40;40.20
12329;DHT22;6230;52.390;10.256;2023-02-28T15:03:38;12.30;40.60
12329;DHT22;6230;52.390;10.256;2023-02-28T15:06:06;12.20;40.60
12329;DHT22;6230;52.390;10.256;2023-02-28T15:08:37;12.20;41.00
12329;DHT22;6230;52.390;10.256;2023-02-28T15:11:06;12.10;41.10
12329;DHT22;6230;52.390;10.256;2023-02-28T15:13:36;12.00;41.40
12329;DHT22;6230;52.390;10.256;2023-02-28T15:16:04;11.90;41.60
12329;DHT22;6230;52.390;10.256;2023-02-28T15:18:48;11.80;41.70
12329;DHT22;6230;52.390;10.256;2023-02-28T15:21:23;11.80;41.50
12329;DHT22;6230;52.390;10.256;2023-02-28T15:26:21;11.70;41.30
12329;DHT22;6230;52.390;10.256;2023-02-28T15:28:59;11.60;41.60
12329;DHT22;6230;52.390;10.256;2023-02-28T15:31:39;11.50;41.20
12329;DHT22;6230;52.390;10.256;2023-02-28T15:34:15;11.40;41.70
12329;DHT22;6230;52.390;10.256;2023-02-28T15:36:43;11.30;41.90
12329;DHT22;6230;52.390;10.256;2023-02-28T15:39:26;11.30;42.10
12329;DHT22;6230;52.390;10.256;2023-02-28T15:42:18;11.30;42.20
12329;DHT22;6230;52.390;10.256;2023-02-28T15:44:44;11.30;42.30
12329;DHT22;6230;52.390;10.256;2023-02-28T15:47:35;11.30;42.40
12329;DHT22;6230;52.390;10.256;2023-02-28T15:50:05;11.20;42.40
12329;DHT22;6230;52.390;10.256;2023-02-28T15:55:24;11.10;42.40
12329;DHT22;6230;52.390;10.256;2023-02-28T15:57:53;11.10;42.60
12329;DHT22;6230;52.390;10.256;2023-02-28T16:00:23;11.00;42.70
12329;DHT22;6230;52.390;10.256;2023-02-28T16:02:50;11.00;42.70
12329;DHT22;6230;52.390;10.256;2023-02-28T16:05:27;11.00;42.80
12329;DHT22;6230;52.390;10.256;2023-02-28T16:07:57;11.00;42.90
12329;DHT22;6230;52.390;10.256;2023-02-28T16:10:24;11.00;43.00
12329;DHT22;6230;52.390;10.256;2023-02-28T16:12:53;11.00;43.10
12329;DHT22;6230;52.390;10.256;2023-02-28T16:15:27;11.00;43.00
12329;DHT22;6230;52.390;10.256;2023-02-28T16:17:54;11.00;43.20
12329;DHT22;6230;52.390;10.256;2023-02-28T16:20:29;10.90;43.20
12329;DHT22;6230;52.390;10.256;2023-02-28T16:22:55;10.90;43.30
12329;DHT22;6230;52.390;10.256;2023-02-28T16:25:35;10.80;43.40
12329;DHT22;6230;52.390;10.256;2023-02-28T16:28:01;10.80;43.40
12329;DHT22;6230;52.390;10.256;2023-02-28T16:30:28;10.70;43.50
12329;DHT22;6230;52.390;10.256;2023-02-28T16:32:57;10.70;43.60
12329;DHT22;6230;52.390;10.256;2023-02-28T16:35:23;10.70;43.80
12329;DHT22;6230;52.390;10.256;2023-02-28T16:37:51;10.70;43.90
12329;DHT22;6230;52.390;10.256;2023-02-28T16:40:22;10.60;44.00
12329;DHT22;6230;52.390;10.256;2023-02-28T16:42:53;10.60;44.10
12329;DHT22;6230;52.390;10.256;2023-02-28T16:45:25;10.60;44.20
12329;DHT22;6230;52.390;10.256;2023-02-28T16:47:51;10.50;44.20
12329;DHT22;6230;52.390;10.256;2023-02-28T16:50:30;10.40;44.30
12329;DHT22;6230;52.390;10.256;2023-02-28T16:52:58;10.40;44.50
12329;DHT22;6230;52.390;10.256;2023-02-28T16:55:24;10.40;44.60
12329;DHT22;6230;52.390;10.256;2023-02-28T16:57:53;10.30;44.60
12329;DHT22;6230;52.390;10.256;2023-02-28T17:00:19;10.30;44.70
12329;DHT22;6230;52.390;10.256;2023-02-28T17:02:44;10.20;44.70
12329;DHT22;6230;52.390;10.256;2023-02-28T17:05:11;10.20;44.80
12329;DHT22;6230;52.390;10.256;2023-02-28T17:07:37;10.10;44.90
12329;DHT22;6230;52.390;10.256;2023-02-28T17:10:13;10.10;45.00
12329;DHT22;6230;52.390;10.256;2023-02-28T17:12:38;10.00;45.10
12329;DHT22;6230;52.390;10.256;2023-02-28T17:15:05;10.00;45.10
12329;DHT22;6230;52.390;10.256;2023-02-28T17:17:31;10.00;45.20
12329;DHT22;6230;52.390;10.256;2023-02-28T17:19:57;10.00;45.30
12329;DHT22;6230;52.390;10.256;2023-02-28T17:22:23;10.00;45.40
12329;DHT22;6230;52.390;10.256;2023-02-28T17:24:48;10.00;45.40
12329;DHT22;6230;52.390;10.256;2023-02-28T17:27:14;9.90;45.40
12329;DHT22;6230;52.390;10.256;2023-02-28T17:29:40;9.90;45.60
12329;DHT22;6230;52.390;10.256;2023-02-28T17:32:05;9.90;45.60
12329;DHT22;6230;52.390;10.256;2023-02-28T17:34:31;9.80;45.60
12329;DHT22;6230;52.390;10.256;2023-02-28T17:36:56;9.80;45.60
12329;DHT22;6230;52.390;10.256;2023-02-28T17:39:22;9.80;45.70
12329;DHT22;6230;52.390;10.256;2023-02-28T17:41:54;9.70;45.70
12329;DHT22;6230;52.390;10.256;2023-02-28T17:44:21;9.70;45.80
12329;DHT22;6230;52.390;10.256;2023-02-28T17:46:48;9.70;45.90
12329;DHT22;6230;52.390;10.256;2023-02-28T17:49:14;9.60;46.00
12329;DHT22;6230;52.390;10.256;2023-02-28T17:51:40;9.60;46.10
12329;DHT22;6230;52.390;10.256;2023-02-28T17:54:05;9.60;46.20
12329;DHT22;6230;52.390;10.256;2023-02-28T17:56:31;9.50;46.30
12329;DHT22;6230;52.390;10.256;2023-02-28T17:58:57;9.50;46.40
12329;DHT22;6230;52.390;10.256;2023-02-28T18:01:24;9.40;46.50